Time;durP1;ratioP1;P1;durP2;ratioP2;P2;SDS_P1;SDS_P2;PMS_P1;PMS_P2;Temp;Humidity;BMP_temperature;BMP_pressure;BME280_temperature;BME280_humidity;BME280_pressure;Samples;Min_cycle;Max_cycle;Signal;HPM_P1;HPM_P2
2023/02/16 00:01:34;;;;;;;39.55;19.70;;;6.40;99.90;;;-144.05;59.50;56963.53;5016909;28;20041;-77
2023/02/16 00:04:08;;;;;;;35.78;19.02;;;6.40;99.90;;;-144.05;59.20;56969.91;5029901;28;20037;-77
2023/02/16 00:06:34;;;;;;;36.42;18.60;;;6.30;99.90;;;-144.05;59.41;56952.91;5035349;28;20052;-79
2023/02/16 00:08:59;;;;;;;33.67;18.67;;;6.30;99.90;;;-144.05;59.68;56980.53;5034148;28;20374;-78
2023/02/16 00:14:24;;;;;;;35.20;18.85;;;6.10;99.90;;;-144.05;60.52;56965.66;5034306;28;20048;-79
2023/02/16 00:16:57;;;;;;;38.17;19.35;;;6.10;99.90;;;-144.05;60.77;56967.78;5016327;28;20037;-78
2023/02/16 00:19:36;;;;;;;34.40;19.05;;;6.00;99.90;;;-144.05;60.79;57001.75;5015439;28;20080;-78
2023/02/16 00:22:05;;;;;;;37.20;19.98;;;6.10;99.90;;;-144.05;60.65;56978.41;5033350;28;20100;-76
2023/02/16 00:24:31;;;;;;;34.97;20.25;;;6.00;99.90;;;-144.05;60.27;56948.66;5015544;28;20026;-79
2023/02/16 00:26:59;;;;;;;38.15;19.70;;;6.00;99.90;;;-144.05;60.84;56959.28;5019132;28;20095;-78
2023/02/16 00:29:32;;;;;;;38.47;19.85;;;6.00;99.90;;;-144.05;60.57;56969.91;5016660;28;20022;-78
2023/02/16 00:32:02;;;;;;;41.13;20.13;;;6.10;99.90;;;-144.05;60.28;56972.03;5034469;28;20048;-79
2023/02/16 00:34:40;;;;;;;35.40;18.25;;;6.10;99.90;;;-144.05;60.73;56974.16;5034435;28;20400;-79
2023/02/16 00:37:12;;;;;;;40.20;19.05;;;6.10;99.90;;;-144.05;60.52;56976.28;5034775;28;20500;-78
2023/02/16 00:39:41;;;;;;;36.45;19.23;;;6.10;99.90;;;-144.05;60.29;56976.28;5035012;28;20025;-79
2023/02/16 00:42:25;;;;;;;36.85;18.85;;;6.10;99.90;;;-144.05;60.07;56957.16;5035827;28;20029;-80
2023/02/16 00:44:56;;;;;;;35.15;19.10;;;6.10;99.90;;;-144.05;60.28;56972.03;5049122;28;20021;-77
2023/02/16 00:47:45;;;;;;;36.58;19.98;;;6.10;99.90;;;-144.05;59.52;56974.16;5029619;28;20033;-79
2023/02/16 00:50:29;;;;;;;38.20;20.35;;;6.00;99.90;;;-144.05;60.25;56963.53;5045696;28;20051;-80
2023/02/16 00:52:57;;;;;;;35.83;19.15;;;6.00;99.90;;;-144.05;59.96;56967.78;5046576;28;20033;-78
2023/02/16 00:55:32;;;;;;;37.00;19.00;;;6.00;99.90;;;-144.05;60.27;56969.91;5046795;28;20053;-79
2023/02/16 00:58:29;;;;;;;43.45;19.63;;;6.00;99.90;;;-144.05;60.09;56976.28;5046324;28;20036;-77
2023/02/16 01:01:14;;;;;;;36.55;18.88;;;6.00;99.90;;;-144.05;59.97;56989.00;5046195;28;20033;-79
2023/02/16 01:03:42;;;;;;;35.33;18.77;;;6.00;99.90;;;-144.05;60.02;56963.53;5048772;28;20063;-77
2023/02/16 01:11:59;;;;;;;33.03;17.75;;;5.90;99.90;;;-144.05;60.04;56972.03;5033718;28;20052;-79
2023/02/16 01:14:25;;;;;;;40.58;19.17;;;5.90;99.90;;;-144.05;60.32;56950.78;5033553;28;20041;-77
2023/02/16 01:16:52;;;;;;;37.10;20.10;;;5.90;99.90;;;-144.05;59.79;56989.00;5015661;28;20060;-78
2023/02/16 01:19:18;;;;;;;37.67;19.40;;;5.90;99.90;;;-144.05;59.76;56986.91;5015094;28;20061;-79
2023/02/16 01:21:44;;;;;;;39.00;19.65;;;5.90;99.90;;;-144.05;60.02;56972.03;5032735;28;20049;-79
2023/02/16 01:24:09;;;;;;;36.75;20.98;;;5.90;99.90;;;-144.05;59.85;56974.16;5033246;28;20029;-77
2023/02/16 01:26:46;;;;;;;36.42;19.85;;;5.90;99.90;;;-144.05;60.16;56959.28;5033198;28;20068;-77
2023/02/16 01:29:18;;;;;;;38.47;20.08;;;5.90;99.90;;;-144.05;59.51;56980.53;5033228;28;20047;-78
2023/02/16 01:31:45;;;;;;;37.35;18.58;;;5.90;99.90;;;-144.05;59.67;56963.53;5033362;28;20057;-79
2023/02/16 01:34:12;;;;;;;39.22;19.88;;;5.90;99.90;;;-144.05;59.72;56986.91;5037323;28;20048;-79
2023/02/16 01:36:46;;;;;;;35.90;18.55;;;6.00;99.90;;;-144.05;59.57;56972.03;5018983;28;20068;-77
2023/02/16 01:39:19;;;;;;;31.65;17.75;;;6.00;99.90;;;-144.05;58.66;56959.28;5036941;28;20083;-79
2023/02/16 01:42:15;;;;;;;35.08;18.38;;;6.00;99.90;;;-144.05;58.35;56948.66;5036834;28;20067;-79
2023/02/16 01:45:08;;;;;;;36.13;19.40;;;6.00;99.90;;;-144.05;58.46;56963.53;5037819;28;20048;-78
2023/02/16 01:47:55;;;;;;;33.05;17.77;;;5.90;99.90;;;-144.05;58.98;56946.53;5037402;28;20099;-78
2023/02/16 01:50:40;;;;;;;32.38;17.75;;;6.00;99.90;;;-144.05;58.16;56972.03;5036574;28;20055;-78
2023/02/16 01:53:26;;;;;;;32.90;18.13;;;5.90;99.90;;;-144.05;58.26;56959.28;5039184;28;20033;-80
2023/02/16 01:56:03;;;;;;;34.80;19.15;;;5.90;99.90;;;-144.05;58.34;56972.03;5053092;28;20034;-79
2023/02/16 01:58:47;;;;;;;34.72;17.48;;;5.90;99.90;;;-144.05;58.46;56965.66;5047474;28;20080;-80
2023/02/16 02:01:53;;;;;;;36.28;18.92;;;5.90;99.90;;;-144.05;58.44;56976.28;5018268;28;20044;-77
2023/02/16 02:08:02;;;;;;;35.55;19.45;;;5.90;99.90;;;-144.05;58.39;56948.66;5035847;28;20108;-77
2023/02/16 02:10:46;;;;;;;35.78;18.60;;;5.90;99.90;;;-144.05;58.92;56965.66;5035768;28;20448;-77
2023/02/16 02:13:51;;;;;;;37.20;18.40;;;5.80;99.90;;;-144.05;58.91;56989.00;5017248;28;20080;-79
2023/02/16 02:16:23;;;;;;;32.22;17.27;;;5.70;99.90;;;-144.05;58.90;56984.78;5035718;28;20051;-78
2023/02/16 02:18:49;;;;;;;33.63;18.77;;;5.60;99.90;;;-144.05;59.02;56984.78;5035049;28;20405;-77
2023/02/16 02:25:22;;;;;;;33.53;19.38;;;5.60;99.90;;;-144.05;59.34;56978.41;5035116;28;20044;-77
2023/02/16 02:28:39;;;;;;;35.97;18.20;;;5.60;99.90;;;-144.05;59.11;56959.28;5033356;28;20050;-79
2023/02/16 02:31:15;;;;;;;39.77;19.77;;;5.60;99.90;;;-144.05;58.87;56974.16;5035201;28;20034;-79
2023/02/16 02:34:08;;;;;;;;;;;5.60;99.90;;;-144.05;58.80;56976.28;5035403;28;20021;-79
2023/02/16 02:37:10;;;;;;;33.90;17.92;;;5.60;99.90;;;-144.05;58.35;56957.16;5035347;28;20043;-77
2023/02/16 02:40:13;;;;;;;30.77;17.85;;;5.50;99.90;;;-144.05;57.92;56978.41;5034401;28;20112;-78
2023/02/16 02:43:03;;;;;;;38.72;19.02;;;5.50;99.90;;;-144.05;58.14;56982.66;5034365;28;20443;-79
2023/02/16 02:45:56;;;;;;;34.90;18.27;;;5.50;99.90;;;-144.05;57.84;56948.66;5034527;28;20037;-79
2023/02/16 02:48:22;;;;;;;34.17;18.73;;;5.30;99.90;;;-144.05;57.95;56978.41;5036731;28;20079;-78
2023/02/16 03:00:46;;;;;;;36.55;19.27;;;5.20;99.90;;;-144.05;58.52;56997.50;5035384;28;20221;-78
2023/02/16 03:03:38;;;;;;;32.30;17.85;;;5.20;99.90;;;-144.05;58.34;56976.28;5035338;28;20112;-79
2023/02/16 03:06:44;;;;;;;34.33;17.80;;;5.20;99.90;;;-144.05;58.99;56989.00;5035072;28;20025;-79
2023/02/16 03:09:14;;;;;;;32.95;18.10;;;5.20;99.90;;;-144.05;58.82;56972.03;5004517;28;20041;-77
2023/02/16 03:14:50;;;;;;;33.30;18.63;;;5.10;99.90;;;-144.05;59.05;56989.00;5034545;28;20449;-76
2023/02/16 03:31:37;;;;;;;35.13;19.02;;;5.20;99.90;;;-144.05;58.26;56989.00;5035837;28;20039;-78
2023/02/16 03:34:04;;;;;;;34.80;17.52;;;5.20;99.90;;;-144.05;57.82;56967.78;5016411;28;20443;-78
2023/02/16 03:36:37;;;;;;;34.95;18.88;;;5.20;99.90;;;-144.05;57.92;56974.16;5034163;28;20029;-77
2023/02/16 03:39:05;;;;;;;37.47;19.42;;;5.20;99.90;;;-144.05;57.85;56965.66;5016149;28;20029;-77
2023/02/16 03:41:38;;;;;;;34.03;17.90;;;5.10;99.90;;;-144.05;58.36;56984.78;5016059;28;20116;-78
2023/02/16 03:44:04;;;;;;;35.15;18.15;;;5.10;99.90;;;-144.05;58.10;56984.78;5034262;28;20044;-78
2023/02/16 03:46:30;;;;;;;39.35;18.75;;;5.10;99.90;;;-144.05;58.51;56967.78;5033912;28;20029;-78
2023/02/16 03:48:56;;;;;;;35.33;18.35;;;5.10;99.90;;;-144.05;58.25;56976.28;5034694;28;20029;-78
2023/02/16 03:51:22;;;;;;;35.97;19.90;;;5.10;99.90;;;-144.05;57.85;56980.53;5033638;28;20091;-79
2023/02/16 03:53:49;;;;;;;32.67;18.95;;;5.20;99.90;;;-144.05;57.79;56974.16;5034079;28;20457;-78
2023/02/16 03:56:15;;;;;;;35.58;17.20;;;5.30;99.90;;;-144.05;57.80;56984.78;5033297;28;20030;-78
2023/02/16 03:58:41;;;;;;;38.33;18.10;;;5.30;99.90;;;-144.05;57.39;56959.28;5033454;28;20096;-78
2023/02/16 04:01:07;;;;;;;36.10;17.98;;;5.20;99.90;;;-144.05;58.21;56976.28;5015877;28;20408;-79
2023/02/16 04:03:33;;;;;;;37.92;19.13;;;5.20;99.90;;;-144.05;58.32;56963.53;5033282;28;20037;-79
2023/02/16 04:05:59;;;;;;;35.55;19.58;;;5.30;99.90;;;-144.05;58.55;56984.78;5033370;28;20048;-78
2023/02/16 04:08:25;;;;;;;37.08;18.88;;;5.30;99.90;;;-144.05;58.23;56991.13;5035202;28;20049;-78
2023/02/16 04:10:53;;;;;;;36.00;20.15;;;5.30;99.90;;;-144.05;58.28;56972.03;5016527;28;20580;-78
2023/02/16 04:13:19;;;;;;;35.75;19.15;;;5.20;99.90;;;-144.05;57.87;56961.41;5034173;28;20345;-79
2023/02/16 04:15:44;;;;;;;35.67;18.70;;;5.20;99.90;;;-144.05;58.23;56980.53;5034174;28;20037;-79
2023/02/16 04:18:11;;;;;;;35.90;18.88;;;5.30;99.90;;;-144.05;58.03;56984.78;5033550;28;20091;-78
2023/02/16 04:20:36;;;;;;;35.40;17.95;;;5.30;99.90;;;-144.05;58.08;56965.66;5032965;28;20334;-78
2023/02/16 04:23:03;;;;;;;35.60;19.08;;;5.30;99.90;;;-144.05;58.06;56997.50;5033363;28;20083;-77
2023/02/16 04:25:29;;;;;;;39.90;20.08;;;5.20;99.90;;;-144.05;58.24;56989.00;5016155;28;20037;-78
2023/02/16 04:27:56;;;;;;;37.80;19.58;;;5.30;99.90;;;-144.05;58.58;56965.66;5033205;28;20017;-78
2023/02/16 04:30:29;;;;;;;38.75;20.10;;;5.30;99.90;;;-144.05;58.07;56957.16;5032717;28;20033;-79
2023/02/16 04:32:57;;;;;;;39.78;20.55;;;5.20;99.90;;;-144.05;58.54;56969.91;5014885;28;20053;-79
2023/02/16 04:35:23;;;;;;;37.60;18.58;;;5.20;99.90;;;-144.05;58.41;56982.66;5034350;28;20025;-77
2023/02/16 04:37:49;;;;;;;38.03;19.30;;;5.20;99.90;;;-144.05;58.31;56963.53;5037294;28;20060;-77
2023/02/16 04:40:18;;;;;;;36.25;20.10;;;5.30;99.90;;;-144.05;58.19;56984.78;5033266;28;20122;-79
2023/02/16 04:42:45;;;;;;;33.92;18.77;;;5.30;99.90;;;-144.05;58.27;56967.78;5032146;28;20432;-78
2023/02/16 04:45:12;;;;;;;32.47;18.70;;;5.20;99.90;;;-144.05;58.53;56967.78;5018271;28;20485;-81
2023/02/16 04:47:38;;;;;;;35.28;19.02;;;5.30;99.90;;;-144.05;57.88;56980.53;5044076;28;20064;-79
2023/02/16 04:50:06;;;;;;;33.25;18.27;;;5.20;99.90;;;-144.05;58.43;56997.50;5042143;28;20017;-79
2023/02/16 04:52:33;;;;;;;36.35;18.10;;;5.20;99.90;;;-144.05;58.21;56965.66;5043967;28;20133;-77
2023/02/16 04:54:58;;;;;;;38.22;19.92;;;5.20;99.90;;;-144.05;58.17;56984.78;5040300;28;20075;-79
2023/02/16 04:57:25;;;;;;;38.35;19.70;;;5.20;99.90;;;-144.05;58.42;56967.78;5020240;28;20029;-80
2023/02/16 04:59:50;;;;;;;35.20;19.83;;;5.20;99.90;;;-144.05;58.48;56993.25;5037849;28;20033;-79
2023/02/16 05:02:16;;;;;;;39.42;20.40;;;5.30;99.90;;;-144.05;58.25;56972.03;5037677;28;20504;-79
2023/02/16 05:04:42;;;;;;;40.28;19.63;;;5.20;99.90;;;-144.05;58.30;56993.25;5037865;28;20029;-78
2023/02/16 05:07:08;;;;;;;35.72;19.50;;;5.20;99.90;;;-144.05;58.15;56995.38;5038368;28;20033;-78
2023/02/16 05:09:34;;;;;;;38.40;20.45;;;5.30;99.90;;;-144.05;58.41;56950.78;5038429;28;20079;-78
2023/02/16 05:14:44;;;;;;;35.20;18.75;;;5.20;99.90;;;-144.05;58.05;56976.28;5037267;28;20090;-76
2023/02/16 05:17:19;;;;;;;33.67;18.92;;;5.10;99.90;;;-144.05;58.38;56993.25;5015440;28;20060;-77
2023/02/16 05:19:53;;;;;;;40.63;19.52;;;5.10;99.90;;;-144.05;58.59;56950.78;5033395;28;20025;-76
2023/02/16 05:22:19;;;;;;;41.13;18.92;;;5.10;99.90;;;-144.05;58.34;56969.91;5032562;28;20065;-77
2023/02/16 05:24:46;;;;;;;43.67;19.52;;;5.00;99.90;;;-144.05;58.90;56986.91;5031880;28;20113;-76
2023/02/16 05:27:25;;;;;;;36.75;20.00;;;5.00;99.90;;;-144.05;58.92;56974.16;5031841;28;20099;-77
2023/02/16 05:29:51;;;;;;;37.88;21.40;;;4.90;99.90;;;-144.05;59.26;56957.16;5032463;28;20030;-78
2023/02/16 05:32:18;;;;;;;40.17;20.63;;;4.90;99.90;;;-144.05;59.57;56984.78;5013542;28;20025;-78
2023/02/16 05:34:44;;;;;;;38.90;19.58;;;4.90;99.90;;;-144.05;59.12;56972.03;5031160;28;20484;-79
2023/02/16 05:37:17;;;;;;;40.80;20.15;;;4.90;99.90;;;-144.05;59.39;56986.91;5031074;28;20063;-77
2023/02/16 05:39:44;;;;;;;39.95;20.50;;;4.80;99.90;;;-144.05;59.97;56995.38;5030718;28;20127;-78
2023/02/16 05:42:10;;;;;;;39.33;19.92;;;4.80;99.90;;;-144.05;59.99;56974.16;5031546;28;20030;-78
2023/02/16 05:44:37;;;;;;;35.28;20.52;;;4.80;99.90;;;-144.05;59.94;56959.28;5013323;28;20030;-78
2023/02/16 05:47:04;;;;;;;44.20;20.10;;;4.80;99.90;;;-144.05;60.14;56984.78;5031128;28;20393;-80
2023/02/16 05:49:30;;;;;;;35.40;18.42;;;4.80;99.90;;;-144.05;60.28;56961.41;5012315;28;20033;-80
2023/02/16 05:51:56;;;;;;;37.50;18.95;;;4.80;99.90;;;-144.05;59.83;56965.66;5031610;28;20037;-78
2023/02/16 05:54:22;;;;;;;35.40;18.95;;;4.90;99.90;;;-144.05;60.12;56974.16;5031942;28;20134;-79
2023/02/16 05:56:51;;;;;;;37.50;20.40;;;4.90;99.90;;;-144.05;60.09;56974.16;5031752;28;20095;-78
2023/02/16 05:59:18;;;;;;;40.03;20.95;;;5.00;99.90;;;-144.05;60.60;56976.28;5033077;28;20034;-80
2023/02/16 06:01:45;;;;;;;40.60;20.40;;;5.00;99.90;;;-144.05;59.57;56989.00;5034809;28;20029;-80
2023/02/16 06:04:16;;;;;;;38.72;19.85;;;5.10;99.90;;;-144.05;59.65;56969.91;5034724;28;20029;-77
2023/02/16 06:06:42;;;;;;;38.40;22.02;;;5.20;99.90;;;-144.05;59.09;56984.78;5031333;28;20030;-78
2023/02/16 06:09:08;;;;;;;38.35;20.15;;;5.10;99.90;;;-144.05;59.48;56984.78;5031041;28;20052;-79
2023/02/16 06:11:35;;;;;;;38.80;20.85;;;5.10;99.90;;;-144.05;59.50;56993.25;5031185;28;20097;-78
2023/02/16 06:14:09;;;;;;;37.13;19.52;;;5.10;99.90;;;-144.05;59.93;56978.41;5015684;28;20030;-78
2023/02/16 06:16:38;;;;;;;42.58;21.60;;;5.10;99.90;;;-144.05;59.82;56967.78;5032706;28;20075;-77
2023/02/16 06:19:05;;;;;;;39.80;20.67;;;5.10;99.90;;;-144.05;59.62;56978.41;5035253;28;20030;-77
2023/02/16 06:21:33;;;;;;;37.42;21.00;;;5.10;99.90;;;-144.05;59.82;56959.28;5041126;28;20029;-78
2023/02/16 06:23:59;;;;;;;41.42;21.45;;;5.00;99.90;;;-144.05;60.18;56978.41;5040571;28;20429;-78
2023/02/16 06:26:26;;;;;;;38.70;19.52;;;5.00;99.90;;;-144.05;59.99;56967.78;5023303;28;20021;-78
2023/02/16 06:28:53;;;;;;;40.13;21.13;;;5.00;99.90;;;-144.05;60.45;56980.53;5041496;28;20341;-79
2023/02/16 06:31:20;;;;;;;39.70;20.40;;;5.00;99.90;;;-144.05;60.06;56993.25;5041947;28;20064;-78
2023/02/16 06:33:46;;;;;;;41.08;20.00;;;5.00;99.90;;;-144.05;60.00;56948.66;5042730;28;20493;-78
2023/02/16 06:36:14;;;;;;;42.47;20.88;;;5.20;99.90;;;-144.05;59.83;56959.28;5024345;28;20092;-78
2023/02/16 06:38:40;;;;;;;41.85;20.13;;;5.10;99.90;;;-144.05;59.79;56961.41;5042281;28;20029;-77
2023/02/16 06:41:06;;;;;;;37.80;21.10;;;5.20;99.90;;;-144.05;59.35;56986.91;5038252;28;20048;-77
2023/02/16 06:43:32;;;;;;;36.42;21.02;;;5.10;99.90;;;-144.05;59.50;56976.28;5039302;28;20040;-77
2023/02/16 06:45:59;;;;;;;40.05;20.50;;;5.10;99.90;;;-144.05;59.64;56952.91;5023707;28;20136;-77
2023/02/16 06:48:25;;;;;;;45.08;21.48;;;5.10;99.90;;;-144.05;60.27;56984.78;5041015;28;20108;-79
2023/02/16 06:50:51;;;;;;;38.85;21.27;;;5.00;99.90;;;-144.05;59.82;56991.13;5041818;28;20037;-77
2023/02/16 06:53:17;;;;;;;36.67;19.92;;;5.10;99.90;;;-144.05;59.52;56976.28;5041859;28;20061;-78
2023/02/16 06:55:43;;;;;;;36.70;20.88;;;5.10;99.90;;;-144.05;59.44;56989.00;5042103;28;20025;-77
2023/02/16 06:58:11;;;;;;;40.08;19.98;;;5.20;99.90;;;-144.05;59.15;56972.03;5023385;28;20096;-77
2023/02/16 07:00:37;;;;;;;37.92;20.50;;;5.20;99.90;;;-144.05;58.95;56976.28;5022266;28;20036;-77
2023/02/16 07:03:03;;;;;;;46.38;22.10;;;5.30;99.90;;;-144.05;58.93;56959.28;5040425;28;20033;-76
2023/02/16 07:05:29;;;;;;;39.20;20.10;;;5.40;99.90;;;-144.05;58.35;56961.41;5021803;28;20092;-76
2023/02/16 07:07:55;;;;;;;36.20;20.08;;;5.50;99.90;;;-144.05;58.04;56961.41;5040287;28;20080;-76
2023/02/16 07:10:21;;;;;;;33.67;19.13;;;5.50;99.90;;;-144.05;57.76;56972.03;5039991;28;20033;-79
2023/02/16 07:12:47;;;;;;;30.85;18.58;;;5.60;99.90;;;-144.05;57.27;56976.28;5040303;28;20101;-78
2023/02/16 07:15:13;;;;;;;43.55;21.73;;;5.70;99.90;;;-144.05;57.32;56938.03;5040976;28;20030;-76
2023/02/16 07:17:39;;;;;;;36.92;19.17;;;5.80;99.90;;;-144.05;56.74;56948.66;5022738;28;20113;-77
2023/02/16 07:20:07;;;;;;;33.33;19.67;;;5.90;99.90;;;-144.05;56.38;56950.78;5022340;28;20039;-77
2023/02/16 07:22:33;;;;;;;38.33;18.55;;;6.10;99.90;;;-144.05;55.94;56978.41;5040401;28;20135;-79
2023/02/16 07:24:59;;;;;;;34.78;19.48;;;6.20;99.90;;;-144.05;56.09;56963.53;5041455;28;20032;-80
2023/02/16 07:27:26;;;;;;;35.90;20.33;;;6.20;99.90;;;-144.05;55.36;56955.03;5041350;28;20037;-79
2023/02/16 07:29:52;;;;;;;38.72;18.27;;;6.30;99.90;;;-144.05;55.43;56967.78;5040164;28;20025;-78
2023/02/16 07:32:18;;;;;;;32.58;18.88;;;6.30;99.90;;;-144.05;55.15;56965.66;5041382;28;20036;-79
2023/02/16 07:34:44;;;;;;;34.03;18.77;;;6.30;99.90;;;-144.05;55.12;56963.53;5041047;28;20550;-78
2023/02/16 07:37:11;;;;;;;35.65;19.20;;;6.30;99.90;;;-144.05;55.13;56952.91;5040474;28;20504;-77
2023/02/16 07:39:37;;;;;;;39.15;20.63;;;6.30;99.90;;;-144.05;54.77;56942.28;5040297;28;20034;-77
2023/02/16 07:42:04;;;;;;;33.53;18.65;;;6.30;99.90;;;-144.05;55.14;56969.91;5022518;28;20374;-76
2023/02/16 07:44:30;;;;;;;34.85;19.63;;;6.40;99.90;;;-144.05;54.94;56993.25;5022662;28;20051;-80
2023/02/16 07:46:55;;;;;;;35.15;18.30;;;6.40;99.90;;;-144.05;54.96;56961.41;5040894;28;20037;-77
2023/02/16 07:49:21;;;;;;;32.17;17.85;;;6.40;99.90;;;-144.05;55.19;56957.16;5041470;28;20067;-77
2023/02/16 07:51:47;;;;;;;38.53;19.45;;;6.40;99.90;;;-144.05;55.16;56959.28;5040212;28;20035;-79
2023/02/16 07:54:14;;;;;;;33.45;18.48;;;6.50;99.90;;;-144.05;54.94;56950.78;5040585;28;20034;-78
2023/02/16 07:56:40;;;;;;;33.85;18.13;;;6.50;99.90;;;-144.05;54.90;56950.78;5041488;28;20059;-77
2023/02/16 07:59:06;;;;;;;36.53;19.02;;;6.60;99.90;;;-144.05;55.11;56965.66;5041050;28;20052;-78
2023/02/16 08:01:32;;;;;;;38.80;19.52;;;6.60;99.90;;;-144.05;55.07;56955.03;5040747;28;20057;-76
2023/02/16 08:03:57;;;;;;;38.35;19.35;;;6.70;99.90;;;-144.05;55.11;56982.66;5022150;28;20033;-78
2023/02/16 08:06:23;;;;;;;32.75;17.27;;;6.80;99.90;;;-144.05;54.83;56946.53;5040275;28;20049;-78
2023/02/16 08:08:49;;;;;;;33.88;19.15;;;6.80;99.90;;;-144.05;54.93;56961.41;5039047;28;20037;-78
2023/02/16 08:11:24;;;;;;;33.50;18.58;;;6.80;99.90;;;-144.05;54.66;56942.28;5040095;28;20032;-78
2023/02/16 08:13:51;;;;;;;32.15;18.10;;;6.80;99.90;;;-144.05;54.56;56957.16;5039969;28;20546;-78
2023/02/16 08:16:26;;;;;;;34.45;19.55;;;6.90;99.90;;;-144.05;54.22;56938.03;5039666;28;20404;-78
2023/02/16 08:18:56;;;;;;;35.65;19.27;;;6.90;99.90;;;-144.05;54.34;56942.28;5038721;28;20021;-77
2023/02/16 08:21:30;;;;;;;37.55;18.42;;;7.00;99.90;;;-144.05;54.10;56916.81;5037541;28;20076;-78
2023/02/16 08:24:05;;;;;;;39.80;19.77;;;7.00;99.90;;;-144.05;54.17;56938.03;5022126;28;20080;-77
2023/02/16 08:26:40;;;;;;;35.05;17.90;;;7.10;99.90;;;-144.05;53.76;56961.41;5039129;28;20116;-77
2023/02/16 08:29:09;;;;;;;36.33;18.63;;;7.20;99.90;;;-144.05;53.38;56944.41;5039903;28;20017;-76
2023/02/16 08:31:37;;;;;;;34.05;17.90;;;7.30;99.90;;;-144.05;53.41;56955.03;5039365;28;20021;-77
2023/02/16 08:34:04;;;;;;;30.92;17.35;;;7.40;99.90;;;-144.05;52.90;56955.03;5045544;28;20063;-78
2023/02/16 08:36:38;;;;;;;33.75;19.40;;;7.50;99.90;;;-144.05;52.70;56940.16;5039469;28;20395;-77
2023/02/16 08:39:13;;;;;;;31.42;17.25;;;7.60;99.90;;;-144.05;52.83;56950.78;5039123;28;20029;-78
2023/02/16 08:41:41;;;;;;;36.97;17.85;;;7.70;99.90;;;-144.05;52.74;56942.28;5021859;28;20493;-78
2023/02/16 08:44:10;;;;;;;32.22;17.08;;;7.80;99.90;;;-144.05;52.41;56938.03;5039724;28;20049;-77
2023/02/16 08:46:40;;;;;;;33.55;18.55;;;7.80;99.90;;;-144.05;52.30;56933.78;5022306;28;20041;-79
2023/02/16 08:49:09;;;;;;;35.05;18.05;;;7.90;99.90;;;-144.05;51.73;56948.66;5039270;28;20547;-80
2023/02/16 08:51:41;;;;;;;31.67;18.23;;;8.10;99.90;;;-144.05;51.13;56944.41;5038481;28;20029;-77
2023/02/16 08:54:08;;;;;;;33.88;16.50;;;8.20;99.90;;;-144.05;50.78;56944.41;5040007;28;20108;-79
2023/02/16 08:56:34;;;;;;;32.70;17.35;;;8.40;99.90;;;-144.05;50.55;56959.28;5023019;28;20030;-77
2023/02/16 08:59:01;;;;;;;27.98;15.27;;;8.50;99.90;;;-144.05;50.34;56950.78;5038739;28;20520;-77
2023/02/16 09:01:27;;;;;;;31.15;16.90;;;8.60;99.90;;;-144.05;49.45;56950.78;5039902;28;20029;-78
2023/02/16 09:03:54;;;;;;;27.80;16.02;;;8.60;99.90;;;-144.05;49.49;56933.78;5038766;28;20469;-77
2023/02/16 09:06:21;;;;;;;29.92;15.07;;;8.70;99.90;;;-144.05;49.11;56931.66;5020181;28;20037;-78
2023/02/16 09:08:56;;;;;;;29.13;16.48;;;8.60;99.90;;;-144.05;49.45;56918.94;5021427;28;20026;-78
2023/02/16 09:11:24;;;;;;;28.30;16.42;;;8.70;99.90;;;-144.05;49.51;56957.16;5037550;28;20030;-80
2023/02/16 09:13:50;;;;;;;34.00;16.17;;;8.80;99.90;;;-144.05;49.01;56940.16;5039053;28;20441;-76
2023/02/16 09:16:22;;;;;;;29.55;16.88;;;8.90;99.90;;;-144.05;48.70;56944.41;5039351;28;20033;-78
2023/02/16 09:18:50;;;;;;;31.05;16.25;;;9.00;99.90;;;-144.05;48.73;56921.06;5019836;28;20029;-78
2023/02/16 09:21:24;;;;;;;28.13;15.73;;;9.10;99.90;;;-144.05;48.57;56929.53;5039339;28;20029;-79
2023/02/16 09:23:54;;;;;;;27.38;16.02;;;9.10;99.90;;;-144.05;48.68;56948.66;5019969;28;20029;-78
2023/02/16 09:26:24;;;;;;;28.13;15.23;;;9.20;99.90;;;-144.05;48.30;56929.53;5038143;28;20037;-78
2023/02/16 09:28:52;;;;;;;26.65;15.52;;;9.30;99.90;;;-144.05;47.84;56929.53;5020518;28;20029;-78
2023/02/16 09:31:27;;;;;;;28.38;16.05;;;9.40;99.90;;;-144.05;47.26;56921.06;5037270;28;20021;-78
2023/02/16 09:34:21;;;;;;;26.92;14.43;;;9.50;99.90;;;-144.05;47.29;56931.66;5038475;28;20030;-74
2023/02/16 09:36:49;;;;;;;28.20;15.50;;;9.80;99.90;;;-144.05;46.82;56925.28;5038024;28;20064;-77
2023/02/16 09:39:17;;;;;;;30.25;16.73;;;10.00;99.90;;;-144.05;46.76;56918.94;5021988;28;20029;-76
2023/02/16 09:42:28;;;;;;;24.30;14.60;;;10.10;99.90;;;-144.05;46.05;56931.66;5038947;28;20488;-77
2023/02/16 09:45:12;;;;;;;27.63;14.25;;;10.30;99.90;;;-144.05;45.69;56925.28;5039876;28;20022;-76
2023/02/16 09:47:44;;;;;;;25.83;15.02;;;10.70;99.90;;;-144.05;44.91;56918.94;5038959;28;20032;-78
2023/02/16 09:50:23;;;;;;;24.33;15.50;;;11.00;99.90;;;-144.05;43.84;56904.06;5037225;28;20032;-77
2023/02/16 09:53:19;;;;;;;26.70;15.27;;;11.20;99.90;;;-144.05;44.51;56893.44;5038542;28;20097;-78
2023/02/16 09:56:21;;;;;;;24.05;14.07;;;11.10;99.90;;;-144.05;44.99;56929.53;5042558;28;20025;-79
2023/02/16 09:59:09;;;;;;;22.80;13.90;;;10.80;99.90;;;-144.05;45.46;56946.53;5044609;28;20081;-79
2023/02/16 10:02:19;;;;;;;25.00;14.93;;;10.70;99.90;;;-144.05;46.12;56918.94;5026864;28;20030;-78
2023/02/16 10:05:31;;;;;;;30.00;14.20;;;10.70;99.90;;;-144.05;46.08;56929.53;5049048;28;20041;-79
2023/02/16 10:08:19;;;;;;;25.90;14.30;;;10.50;99.90;;;-144.05;46.15;56923.19;5028057;28;20053;-77
2023/02/16 10:11:36;;;;;;;27.75;14.15;;;10.40;99.90;;;-144.05;45.76;56925.28;5041551;28;20039;-79
2023/02/16 10:14:36;;;;;;;33.72;15.10;;;10.30;99.90;;;-144.05;46.50;56914.69;5041974;28;20033;-77
2023/02/16 10:17:31;;;;;;;28.90;15.90;;;10.10;99.90;;;-144.05;47.02;56921.06;5042635;28;20087;-79
2023/02/16 10:20:13;;;;;;;24.65;15.05;;;9.90;99.90;;;-144.05;46.89;56959.28;5042389;28;20163;-77
2023/02/16 10:23:27;;;;;;;26.38;16.08;;;9.80;99.90;;;-144.05;47.28;56923.19;5052065;22;20050;-83
2023/02/16 10:26:03;;;;;;;27.23;15.32;;;9.80;99.90;;;-144.05;46.97;56933.78;5033133;28;20041;-84
2023/02/16 10:28:54;;;;;;;30.23;15.13;;;9.80;99.90;;;-144.05;47.62;56946.53;5018795;28;20037;-82
2023/02/16 10:31:31;;;;;;;26.05;15.98;;;9.60;99.90;;;-144.05;47.96;56916.81;5019294;28;20072;-81
2023/02/16 10:34:22;;;;;;;30.45;16.77;;;9.50;99.90;;;-144.05;47.79;56933.78;5019108;28;20029;-81
2023/02/16 10:37:15;;;;;;;29.25;16.02;;;9.40;99.90;;;-144.05;47.92;56944.41;4999898;28;20029;-83
2023/02/16 10:40:21;;;;;;;27.23;17.08;;;9.40;99.90;;;-144.05;48.07;56918.94;4998395;28;20562;-84
2023/02/16 10:43:18;;;;;;;28.55;15.52;;;9.40;99.90;;;-144.05;48.17;56933.78;4998787;28;20052;-82
2023/02/16 10:45:55;;;;;;;29.63;15.70;;;9.40;99.90;;;-144.05;48.39;56948.66;5019579;28;20030;-82
2023/02/16 10:48:22;;;;;;;29.08;16.60;;;9.40;99.90;;;-144.05;48.49;56925.28;4999147;28;20029;-82
2023/02/16 10:51:13;;;;;;;27.58;16.70;;;9.40;99.90;;;-144.05;48.55;56931.66;4999499;28;20052;-83
2023/02/16 10:54:28;;;;;;;28.40;15.70;;;9.40;99.90;;;-144.05;48.29;56931.66;5005348;28;20033;-84
2023/02/16 10:57:03;;;;;;;31.10;16.30;;;9.40;99.90;;;-144.05;48.57;56938.03;5005370;28;20041;-82
2023/02/16 10:59:46;;;;;;;28.07;16.73;;;9.40;99.90;;;-144.05;48.84;56963.53;5001823;28;20025;-83
2023/02/16 11:02:43;;;;;;;27.50;15.73;;;9.50;99.90;;;-144.05;48.75;56942.28;5001858;28;20037;-81
2023/02/16 11:05:39;;;;;;;30.50;15.95;;;9.50;99.90;;;-144.05;49.32;56927.41;5006783;28;20095;-81
2023/02/16 11:08:10;;;;;;;27.83;15.93;;;9.60;99.90;;;-144.05;49.14;56944.41;5016417;28;20433;-83
2023/02/16 11:10:54;;;;;;;27.98;15.90;;;9.60;99.90;;;-144.05;49.02;56912.56;5018130;28;20091;-84
2023/02/16 11:13:36;;;;;;;27.77;16.92;;;9.70;99.90;;;-144.05;49.83;56935.91;4999389;28;20049;-81